sensor_id;sensor_type;location;lat;lon;timestamp;pressure;altitude;pressure_sealevel;temperature;humidity
21594;BME280;10959;51.328;7.322;2022-11-15T00:00:00;98113.00;;;12.01;81.82
21594;BME280;10959;51.328;7.322;2022-11-15T00:02:27;98109.88;;;12.07;82.25
21594;BME280;10959;51.328;7.322;2022-11-15T00:04:53;98105.44;;;12.06;82.17
21594;BME280;10959;51.328;7.322;2022-11-15T00:07:21;98108.50;;;12.14;82.30
21594;BME280;10959;51.328;7.322;2022-11-15T00:09:47;98110.13;;;12.17;82.78
21594;BME280;10959;51.328;7.322;2022-11-15T00:12:14;98096.88;;;12.26;82.26
21594;BME280;10959;51.328;7.322;2022-11-15T00:14:40;98101.59;;;12.23;82.53
21594;BME280;10959;51.328;7.322;2022-11-15T00:17:07;98087.06;;;12.38;81.86
21594;BME280;10959;51.328;7.322;2022-11-15T00:19:33;98095.50;;;12.34;82.56
21594;BME280;10959;51.328;7.322;2022-11-15T00:22:00;98091.41;;;12.41;82.28
21594;BME280;10959;51.328;7.322;2022-11-15T00:24:28;98088.25;;;12.47;81.83
21594;BME280;10959;51.328;7.322;2022-11-15T00:26:54;98086.34;;;12.49;82.23
21594;BME280;10959;51.328;7.322;2022-11-15T00:29:20;98096.50;;;12.58;81.75
21594;BME280;10959;51.328;7.322;2022-11-15T00:31:47;98094.34;;;12.51;82.32
21594;BME280;10959;51.328;7.322;2022-11-15T00:34:14;98109.47;;;12.53;82.40
21594;BME280;10959;51.328;7.322;2022-11-15T00:36:40;98098.34;;;12.58;82.75
21594;BME280;10959;51.328;7.322;2022-11-15T00:39:07;98097.56;;;12.69;82.10
21594;BME280;10959;51.328;7.322;2022-11-15T00:41:35;98094.56;;;12.60;82.30
21594;BME280;10959;51.328;7.322;2022-11-15T00:44:01;98092.00;;;12.72;81.92
21594;BME280;10959;51.328;7.322;2022-11-15T00:46:28;98093.81;;;12.71;82.08
21594;BME280;10959;51.328;7.322;2022-11-15T00:48:54;98096.41;;;12.73;82.19
21594;BME280;10959;51.328;7.322;2022-11-15T00:51:20;98102.47;;;12.89;81.49
21594;BME280;10959;51.328;7.322;2022-11-15T00:53:47;98093.41;;;12.90;81.50
21594;BME280;10959;51.328;7.322;2022-11-15T00:56:13;98093.16;;;12.93;81.33
21594;BME280;10959;51.328;7.322;2022-11-15T00:58:41;98101.38;;;13.05;80.98
21594;BME280;10959;51.328;7.322;2022-11-15T01:01:09;98101.50;;;13.03;81.20
21594;BME280;10959;51.328;7.322;2022-11-15T01:03:36;98102.34;;;13.04;81.08
21594;BME280;10959;51.328;7.322;2022-11-15T01:06:03;98101.16;;;13.08;80.98
21594;BME280;10959;51.328;7.322;2022-11-15T01:08:30;98087.41;;;13.11;80.89
21594;BME280;10959;51.328;7.322;2022-11-15T01:11:00;98091.53;;;13.04;80.84
21594;BME280;10959;51.328;7.322;2022-11-15T01:13:29;98092.38;;;13.17;80.26
21594;BME280;10959;51.328;7.322;2022-11-15T01:15:58;98097.38;;;13.23;79.96
21594;BME280;10959;51.328;7.322;2022-11-15T01:18:25;98101.03;;;13.22;79.78
21594;BME280;10959;51.328;7.322;2022-11-15T01:20:51;98104.47;;;13.24;80.10
21594;BME280;10959;51.328;7.322;2022-11-15T01:23:17;98101.47;;;13.29;79.70
21594;BME280;10959;51.328;7.322;2022-11-15T01:25:44;98102.53;;;13.26;79.52
21594;BME280;10959;51.328;7.322;2022-11-15T01:28:10;98100.81;;;13.25;79.67
21594;BME280;10959;51.328;7.322;2022-11-15T01:30:37;98096.81;;;13.18;80.32
21594;BME280;10959;51.328;7.322;2022-11-15T01:33:05;98095.41;;;13.25;80.03
21594;BME280;10959;51.328;7.322;2022-11-15T01:35:31;98095.84;;;13.32;79.98
21594;BME280;10959;51.328;7.322;2022-11-15T01:37:58;98087.59;;;13.34;79.80
21594;BME280;10959;51.328;7.322;2022-11-15T01:40:24;98084.72;;;13.37;79.70
21594;BME280;10959;51.328;7.322;2022-11-15T01:42:50;98084.38;;;13.41;79.40
21594;BME280;10959;51.328;7.322;2022-11-15T01:45:17;98081.53;;;13.43;79.18
21594;BME280;10959;51.328;7.322;2022-11-15T01:47:45;98086.94;;;13.43;78.87
21594;BME280;10959;51.328;7.322;2022-11-15T01:50:17;98074.44;;;13.42;78.71
21594;BME280;10959;51.328;7.322;2022-11-15T01:52:46;98075.16;;;13.44;79.44
21594;BME280;10959;51.328;7.322;2022-11-15T01:55:17;98077.03;;;13.30;79.72
21594;BME280;10959;51.328;7.322;2022-11-15T01:57:46;98068.47;;;13.37;79.42
21594;BME280;10959;51.328;7.322;2022-11-15T02:00:15;98074.19;;;13.45;79.38
21594;BME280;10959;51.328;7.322;2022-11-15T02:02:41;98079.59;;;13.45;79.24
21594;BME280;10959;51.328;7.322;2022-11-15T02:05:09;98079.38;;;13.48;79.06
21594;BME280;10959;51.328;7.322;2022-11-15T02:07:37;98080.13;;;13.50;78.89
21594;BME280;10959;51.328;7.322;2022-11-15T02:10:08;98074.19;;;13.45;78.99
21594;BME280;10959;51.328;7.322;2022-11-15T02:12:36;98086.28;;;13.52;78.99
21594;BME280;10959;51.328;7.322;2022-11-15T02:15:04;98078.06;;;13.54;78.82
21594;BME280;10959;51.328;7.322;2022-11-15T02:17:56;98066.63;;;13.24;79.30
21594;BME280;10959;51.328;7.322;2022-11-15T02:20:42;98063.41;;;13.19;79.88
21594;BME280;10959;51.328;7.322;2022-11-15T02:23:47;98065.56;;;13.14;79.92
21594;BME280;10959;51.328;7.322;2022-11-15T02:26:50;98056.38;;;13.17;79.73
21594;BME280;10959;51.328;7.322;2022-11-15T02:29:31;98059.06;;;13.29;79.42
21594;BME280;10959;51.328;7.322;2022-11-15T02:32:09;98065.97;;;13.34;79.37
21594;BME280;10959;51.328;7.322;2022-11-15T02:34:45;98055.16;;;13.34;79.24
21594;BME280;10959;51.328;7.322;2022-11-15T02:37:20;98056.00;;;13.47;79.22
21594;BME280;10959;51.328;7.322;2022-11-15T02:39:53;98059.91;;;13.43;79.34
21594;BME280;10959;51.328;7.322;2022-11-15T02:42:26;98052.03;;;13.40;79.52
21594;BME280;10959;51.328;7.322;2022-11-15T02:45:13;98057.44;;;13.40;79.27
21594;BME280;10959;51.328;7.322;2022-11-15T02:47:46;98056.22;;;13.44;79.13
21594;BME280;10959;51.328;7.322;2022-11-15T02:50:17;98053.06;;;13.50;78.83
21594;BME280;10959;51.328;7.322;2022-11-15T02:52:45;98047.13;;;13.58;78.63
21594;BME280;10959;51.328;7.322;2022-11-15T02:55:26;98040.25;;;13.41;78.66
21594;BME280;10959;51.328;7.322;2022-11-15T02:58:03;98039.78;;;13.47;78.82
21594;BME280;10959;51.328;7.322;2022-11-15T03:00:35;98042.56;;;13.58;78.83
21594;BME280;10959;51.328;7.322;2022-11-15T03:03:37;98042.19;;;13.39;78.94
21594;BME280;10959;51.328;7.322;2022-11-15T03:06:15;98037.84;;;13.49;79.12
21594;BME280;10959;51.328;7.322;2022-11-15T03:08:51;98041.03;;;13.54;79.16
21594;BME280;10959;51.328;7.322;2022-11-15T03:11:22;98032.28;;;13.63;79.43
21594;BME280;10959;51.328;7.322;2022-11-15T03:13:56;98031.97;;;13.55;79.59
21594;BME280;10959;51.328;7.322;2022-11-15T03:16:27;98032.75;;;13.69;79.15
21594;BME280;10959;51.328;7.322;2022-11-15T03:18:58;98042.09;;;13.64;79.27
21594;BME280;10959;51.328;7.322;2022-11-15T03:21:28;98040.16;;;13.67;79.54
21594;BME280;10959;51.328;7.322;2022-11-15T03:23:58;98040.16;;;13.67;79.56
21594;BME280;10959;51.328;7.322;2022-11-15T03:26:29;98041.41;;;13.74;79.54
21594;BME280;10959;51.328;7.322;2022-11-15T03:28:58;98041.41;;;13.74;79.37
21594;BME280;10959;51.328;7.322;2022-11-15T03:31:30;98040.44;;;13.75;79.29
21594;BME280;10959;51.328;7.322;2022-11-15T03:34:19;98053.78;;;13.65;79.20
21594;BME280;10959;51.328;7.322;2022-11-15T03:36:49;98054.22;;;13.83;78.99
21594;BME280;10959;51.328;7.322;2022-11-15T03:39:17;98055.13;;;13.83;79.19
21594;BME280;10959;51.328;7.322;2022-11-15T03:41:48;98051.47;;;13.72;79.37
21594;BME280;10959;51.328;7.322;2022-11-15T03:44:22;98041.88;;;13.68;79.46
21594;BME280;10959;51.328;7.322;2022-11-15T03:47:00;98041.19;;;13.77;79.44
21594;BME280;10959;51.328;7.322;2022-11-15T03:49:32;98035.16;;;13.73;79.52
21594;BME280;10959;51.328;7.322;2022-11-15T03:52:00;98031.84;;;13.81;79.54
21594;BME280;10959;51.328;7.322;2022-11-15T03:54:27;98032.94;;;13.78;79.70
21594;BME280;10959;51.328;7.322;2022-11-15T03:56:54;98035.75;;;13.77;79.49
21594;BME280;10959;51.328;7.322;2022-11-15T03:59:20;98030.81;;;13.71;80.18
21594;BME280;10959;51.328;7.322;2022-11-15T04:01:47;98030.06;;;13.69;80.19
21594;BME280;10959;51.328;7.322;2022-11-15T04:04:14;98026.91;;;13.75;80.09
21594;BME280;10959;51.328;7.322;2022-11-15T04:06:42;98027.34;;;13.69;80.26
21594;BME280;10959;51.328;7.322;2022-11-15T04:09:09;98017.59;;;13.79;79.82
21594;BME280;10959;51.328;7.322;2022-11-15T04:11:35;98022.75;;;13.82;79.62
21594;BME280;10959;51.328;7.322;2022-11-15T04:14:02;98015.38;;;13.84;79.81
21594;BME280;10959;51.328;7.322;2022-11-15T04:16:28;98018.84;;;13.86;79.55
21594;BME280;10959;51.328;7.322;2022-11-15T04:18:55;98015.38;;;13.84;79.56
21594;BME280;10959;51.328;7.322;2022-11-15T04:21:35;98011.47;;;13.88;79.64
21594;BME280;10959;51.328;7.322;2022-11-15T04:24:20;98011.19;;;13.80;79.87
21594;BME280;10959;51.328;7.322;2022-11-15T04:26:47;98013.03;;;13.79;80.15
21594;BME280;10959;51.328;7.322;2022-11-15T04:29:13;98011.94;;;13.82;80.11
21594;BME280;10959;51.328;7.322;2022-11-15T04:31:57;98022.53;;;13.85;79.88
21594;BME280;10959;51.328;7.322;2022-11-15T04:34:23;98016.63;;;13.91;79.79
21594;BME280;10959;51.328;7.322;2022-11-15T04:36:51;98012.97;;;13.92;79.65
21594;BME280;10959;51.328;7.322;2022-11-15T04:39:36;98022.16;;;13.90;79.68
21594;BME280;10959;51.328;7.322;2022-11-15T04:42:03;98018.63;;;13.89;79.89
21594;BME280;10959;51.328;7.322;2022-11-15T04:44:30;98018.38;;;13.92;79.93
21594;BME280;10959;51.328;7.322;2022-11-15T04:46:56;98021.09;;;13.92;79.85
21594;BME280;10959;51.328;7.322;2022-11-15T04:49:22;98015.19;;;13.98;79.60
21594;BME280;10959;51.328;7.322;2022-11-15T04:51:49;98013.97;;;14.03;79.61
21594;BME280;10959;51.328;7.322;2022-11-15T04:54:15;98016.41;;;13.94;79.79
21594;BME280;10959;51.328;7.322;2022-11-15T04:56:43;98005.44;;;13.96;79.92
21594;BME280;10959;51.328;7.322;2022-11-15T04:59:10;98009.03;;;13.96;79.87
21594;BME280;10959;51.328;7.322;2022-11-15T05:01:36;98006.28;;;13.85;80.20
21594;BME280;10959;51.328;7.322;2022-11-15T05:04:03;98005.34;;;13.97;79.81
21594;BME280;10959;51.328;7.322;2022-11-15T05:06:48;98010.81;;;13.85;80.52
21594;BME280;10959;51.328;7.322;2022-11-15T05:09:15;98004.84;;;13.92;80.14
21594;BME280;10959;51.328;7.322;2022-11-15T05:11:43;98004.31;;;13.87;80.09
21594;BME280;10959;51.328;7.322;2022-11-15T05:14:10;98011.00;;;13.94;80.13
21594;BME280;10959;51.328;7.322;2022-11-15T05:16:37;98010.94;;;13.83;79.99
21594;BME280;10959;51.328;7.322;2022-11-15T05:19:04;98010.44;;;13.78;80.87
21594;BME280;10959;51.328;7.322;2022-11-15T05:21:31;98017.59;;;13.90;80.55
21594;BME280;10959;51.328;7.322;2022-11-15T05:23:58;98012.78;;;13.82;80.71
21594;BME280;10959;51.328;7.322;2022-11-15T05:26:25;98010.63;;;13.88;80.66
21594;BME280;10959;51.328;7.322;2022-11-15T05:28:54;98007.06;;;13.98;79.82
21594;BME280;10959;51.328;7.322;2022-11-15T05:31:21;98006.22;;;13.98;79.91
21594;BME280;10959;51.328;7.322;2022-11-15T05:33:48;98000.44;;;14.03;79.75
21594;BME280;10959;51.328;7.322;2022-11-15T05:36:17;98000.44;;;14.03;79.89
21594;BME280;10959;51.328;7.322;2022-11-15T05:38:46;97992.56;;;13.99;80.03
21594;BME280;10959;51.328;7.322;2022-11-15T05:41:15;97999.72;;;14.00;79.87
21594;BME280;10959;51.328;7.322;2022-11-15T05:43:43;97999.97;;;14.09;79.67
21594;BME280;10959;51.328;7.322;2022-11-15T05:46:12;97998.00;;;14.11;79.33
21594;BME280;10959;51.328;7.322;2022-11-15T05:48:41;97994.81;;;14.17;79.28
21594;BME280;10959;51.328;7.322;2022-11-15T05:51:09;97997.03;;;14.12;79.76
21594;BME280;10959;51.328;7.322;2022-11-15T05:53:36;97992.59;;;14.11;79.42
21594;BME280;10959;51.328;7.322;2022-11-15T05:56:04;97998.47;;;13.93;80.35
21594;BME280;10959;51.328;7.322;2022-11-15T05:58:31;97992.81;;;13.96;80.33
21594;BME280;10959;51.328;7.322;2022-11-15T06:00:58;97996.00;;;14.02;79.96
21594;BME280;10959;51.328;7.322;2022-11-15T06:03:27;98009.22;;;14.06;79.73
21594;BME280;10959;51.328;7.322;2022-11-15T06:05:53;98000.97;;;14.08;79.73
21594;BME280;10959;51.328;7.322;2022-11-15T06:08:20;98015.47;;;14.07;79.57
21594;BME280;10959;51.328;7.322;2022-11-15T06:10:46;98015.44;;;13.95;80.11
21594;BME280;10959;51.328;7.322;2022-11-15T06:13:12;98004.41;;;14.10;79.50
21594;BME280;10959;51.328;7.322;2022-11-15T06:15:39;98009.56;;;14.13;79.55
21594;BME280;10959;51.328;7.322;2022-11-15T06:18:05;98008.09;;;14.09;79.42
21594;BME280;10959;51.328;7.322;2022-11-15T06:20:33;98016.97;;;14.11;79.04
21594;BME280;10959;51.328;7.322;2022-11-15T06:23:02;98014.53;;;14.19;79.00
21594;BME280;10959;51.328;7.322;2022-11-15T06:25:29;98013.91;;;14.15;79.00
21594;BME280;10959;51.328;7.322;2022-11-15T06:27:57;98024.50;;;14.18;78.68
21594;BME280;10959;51.328;7.322;2022-11-15T06:30:25;98025.94;;;14.11;79.04
21594;BME280;10959;51.328;7.322;2022-11-15T06:32:58;98033.44;;;14.08;78.76
21594;BME280;10959;51.328;7.322;2022-11-15T06:35:24;98025.38;;;14.19;78.76
21594;BME280;10959;51.328;7.322;2022-11-15T06:37:52;98026.88;;;14.23;78.55
21594;BME280;10959;51.328;7.322;2022-11-15T06:40:19;98036.66;;;14.13;78.74
21594;BME280;10959;51.328;7.322;2022-11-15T06:42:45;98028.81;;;14.21;78.36
21594;BME280;10959;51.328;7.322;2022-11-15T06:45:11;98030.53;;;14.22;78.38
21594;BME280;10959;51.328;7.322;2022-11-15T06:47:44;98036.66;;;14.13;78.01
21594;BME280;10959;51.328;7.322;2022-11-15T06:50:10;98032.28;;;14.23;78.03
21594;BME280;10959;51.328;7.322;2022-11-15T06:52:37;98037.69;;;14.23;77.79
21594;BME280;10959;51.328;7.322;2022-11-15T06:55:06;98040.50;;;14.22;77.74
21594;BME280;10959;51.328;7.322;2022-11-15T06:57:32;98054.91;;;14.22;77.78
21594;BME280;10959;51.328;7.322;2022-11-15T06:59:59;98050.72;;;14.18;77.47
21594;BME280;10959;51.328;7.322;2022-11-15T07:02:26;98057.34;;;14.14;77.27
21594;BME280;10959;51.328;7.322;2022-11-15T07:04:52;98056.38;;;14.15;77.32
21594;BME280;10959;51.328;7.322;2022-11-15T07:07:18;98052.03;;;14.12;77.21
21594;BME280;10959;51.328;7.322;2022-11-15T07:09:45;98053.13;;;14.10;76.96
21594;BME280;10959;51.328;7.322;2022-11-15T07:12:12;98061.78;;;14.15;76.62
21594;BME280;10959;51.328;7.322;2022-11-15T07:14:39;98055.84;;;14.10;76.85
21594;BME280;10959;51.328;7.322;2022-11-15T07:17:05;98057.69;;;14.09;76.83
21594;BME280;10959;51.328;7.322;2022-11-15T07:19:32;98063.47;;;14.05;76.93
21594;BME280;10959;51.328;7.322;2022-11-15T07:21:58;98060.22;;;13.99;76.75
21594;BME280;10959;51.328;7.322;2022-11-15T07:24:25;98063.53;;;13.92;76.86
21594;BME280;10959;51.328;7.322;2022-11-15T07:26:51;98064.44;;;14.04;76.75
21594;BME280;10959;51.328;7.322;2022-11-15T07:29:19;98068.97;;;14.03;76.51
21594;BME280;10959;51.328;7.322;2022-11-15T07:31:45;98081.34;;;13.94;76.76
21594;BME280;10959;51.328;7.322;2022-11-15T07:34:12;98079.84;;;13.90;76.87
21594;BME280;10959;51.328;7.322;2022-11-15T07:36:38;98082.69;;;13.89;76.89
21594;BME280;10959;51.328;7.322;2022-11-15T07:39:04;98090.19;;;13.85;76.86
21594;BME280;10959;51.328;7.322;2022-11-15T07:41:31;98074.41;;;13.79;76.82
21594;BME280;10959;51.328;7.322;2022-11-15T07:43:57;98089.22;;;13.86;76.47
21594;BME280;10959;51.328;7.322;2022-11-15T07:46:25;98087.53;;;13.72;76.52
21594;BME280;10959;51.328;7.322;2022-11-15T07:48:51;98088.81;;;13.79;76.55
21594;BME280;10959;51.328;7.322;2022-11-15T07:51:18;98091.16;;;13.84;75.97
21594;BME280;10959;51.328;7.322;2022-11-15T07:53:44;98092.88;;;13.85;76.05
21594;BME280;10959;51.328;7.322;2022-11-15T07:56:11;98089.84;;;13.90;75.63
21594;BME280;10959;51.328;7.322;2022-11-15T07:58:38;98085.06;;;13.93;75.42
21594;BME280;10959;51.328;7.322;2022-11-15T08:01:05;98088.28;;;13.98;74.97
21594;BME280;10959;51.328;7.322;2022-11-15T08:03:33;98090.00;;;13.99;74.87
21594;BME280;10959;51.328;7.322;2022-11-15T08:05:59;98098.59;;;13.93;75.10
21594;BME280;10959;51.328;7.322;2022-11-15T08:08:26;98090.88;;;14.00;75.07
21594;BME280;10959;51.328;7.322;2022-11-15T08:10:52;98087.59;;;14.08;74.80
21594;BME280;10959;51.328;7.322;2022-11-15T08:13:19;98088.84;;;14.15;74.64
21594;BME280;10959;51.328;7.322;2022-11-15T08:15:46;98090.06;;;14.11;74.29
21594;BME280;10959;51.328;7.322;2022-11-15T08:18:14;98090.78;;;14.13;73.97
21594;BME280;10959;51.328;7.322;2022-11-15T08:20:43;98086.88;;;14.17;73.43
21594;BME280;10959;51.328;7.322;2022-11-15T08:23:10;98091.28;;;14.07;73.57
21594;BME280;10959;51.328;7.322;2022-11-15T08:25:37;98085.38;;;14.13;73.24
21594;BME280;10959;51.328;7.322;2022-11-15T08:28:06;98091.31;;;14.18;73.19
21594;BME280;10959;51.328;7.322;2022-11-15T08:30:35;98087.34;;;14.11;73.15
21594;BME280;10959;51.328;7.322;2022-11-15T08:33:03;98084.06;;;14.18;73.19
21594;BME280;10959;51.328;7.322;2022-11-15T08:35:29;98089.59;;;14.17;73.23
21594;BME280;10959;51.328;7.322;2022-11-15T08:37:57;98082.09;;;14.21;72.76
21594;BME280;10959;51.328;7.322;2022-11-15T08:40:24;98086.44;;;14.23;72.98
21594;BME280;10959;51.328;7.322;2022-11-15T08:42:52;98077.06;;;14.27;72.45
21594;BME280;10959;51.328;7.322;2022-11-15T08:45:18;98080.31;;;14.32;72.41
21594;BME280;10959;51.328;7.322;2022-11-15T08:47:45;98075.84;;;14.31;72.25
21594;BME280;10959;51.328;7.322;2022-11-15T08:50:11;98074.88;;;14.32;72.28
21594;BME280;10959;51.328;7.322;2022-11-15T08:52:37;98082.28;;;14.42;72.18
21594;BME280;10959;51.328;7.322;2022-11-15T08:55:06;98081.19;;;14.44;72.05
21594;BME280;10959;51.328;7.322;2022-11-15T08:57:33;98077.63;;;14.44;71.89
21594;BME280;10959;51.328;7.322;2022-11-15T09:00:01;98072.50;;;14.52;71.62
21594;BME280;10959;51.328;7.322;2022-11-15T09:02:27;98074.72;;;14.58;71.39
21594;BME280;10959;51.328;7.322;2022-11-15T09:04:53;98069.00;;;14.50;71.17
21594;BME280;10959;51.328;7.322;2022-11-15T09:07:20;98077.16;;;14.50;71.27
21594;BME280;10959;51.328;7.322;2022-11-15T09:09:46;98065.34;;;14.51;71.34
21594;BME280;10959;51.328;7.322;2022-11-15T09:12:14;98082.31;;;14.53;71.13
21594;BME280;10959;51.328;7.322;2022-11-15T09:14:40;98051.78;;;14.51;70.98
21594;BME280;10959;51.328;7.322;2022-11-15T09:17:07;98059.44;;;14.57;70.99
21594;BME280;10959;51.328;7.322;2022-11-15T09:19:34;98061.41;;;14.55;70.75
21594;BME280;10959;51.328;7.322;2022-11-15T09:22:02;98058.00;;;14.64;70.65
21594;BME280;10959;51.328;7.322;2022-11-15T09:24:31;98051.72;;;14.64;70.26
21594;BME280;10959;51.328;7.322;2022-11-15T09:26:57;98058.50;;;14.69;70.26
21594;BME280;10959;51.328;7.322;2022-11-15T09:29:25;98047.38;;;14.61;69.79
21594;BME280;10959;51.328;7.322;2022-11-15T09:31:52;98044.19;;;14.56;69.73
21594;BME280;10959;51.328;7.322;2022-11-15T09:34:18;98043.94;;;14.59;69.45
21594;BME280;10959;51.328;7.322;2022-11-15T09:36:46;98037.50;;;14.60;69.60
21594;BME280;10959;51.328;7.322;2022-11-15T09:39:12;98038.06;;;14.65;69.62
21594;BME280;10959;51.328;7.322;2022-11-15T09:41:58;98038.97;;;14.53;69.58
21594;BME280;10959;51.328;7.322;2022-11-15T09:44:41;98042.69;;;14.52;69.24
21594;BME280;10959;51.328;7.322;2022-11-15T09:47:37;98037.50;;;14.49;69.27
21594;BME280;10959;51.328;7.322;2022-11-15T09:50:09;98034.00;;;14.71;68.54
21594;BME280;10959;51.328;7.322;2022-11-15T09:52:37;98028.06;;;14.77;68.74
21594;BME280;10959;51.328;7.322;2022-11-15T09:55:08;98034.25;;;14.79;68.18
21594;BME280;10959;51.328;7.322;2022-11-15T09:57:39;98022.31;;;14.82;68.55
21594;BME280;10959;51.328;7.322;2022-11-15T10:00:13;98030.69;;;14.90;68.32
21594;BME280;10959;51.328;7.322;2022-11-15T10:02:57;98025.38;;;14.89;68.44
21594;BME280;10959;51.328;7.322;2022-11-15T10:05:28;98030.47;;;14.93;67.23
21594;BME280;10959;51.328;7.322;2022-11-15T10:08:00;98019.09;;;14.99;67.39
21594;BME280;10959;51.328;7.322;2022-11-15T10:10:32;98013.94;;;14.96;66.21
21594;BME280;10959;51.328;7.322;2022-11-15T10:13:01;98011.94;;;14.98;66.80
21594;BME280;10959;51.328;7.322;2022-11-15T10:15:29;97999.16;;;15.00;66.60
21594;BME280;10959;51.328;7.322;2022-11-15T10:18:05;97986.56;;;14.99;66.67
21594;BME280;10959;51.328;7.322;2022-11-15T10:20:35;97991.50;;;15.06;65.62
21594;BME280;10959;51.328;7.322;2022-11-15T10:23:06;97984.72;;;15.11;65.17
21594;BME280;10959;51.328;7.322;2022-11-15T10:25:36;97983.09;;;15.20;65.68
21594;BME280;10959;51.328;7.322;2022-11-15T10:28:11;97981.16;;;15.11;65.26
21594;BME280;10959;51.328;7.322;2022-11-15T10:30:43;97976.16;;;15.27;65.27
21594;BME280;10959;51.328;7.322;2022-11-15T10:33:19;97980.25;;;15.21;65.13
21594;BME280;10959;51.328;7.322;2022-11-15T10:35:49;97967.28;;;15.36;64.57
21594;BME280;10959;51.328;7.322;2022-11-15T10:38:51;97970.75;;;15.16;63.89
21594;BME280;10959;51.328;7.322;2022-11-15T10:41:20;97963.06;;;15.44;64.33
21594;BME280;10959;51.328;7.322;2022-11-15T10:44:03;97954.00;;;15.22;63.93
21594;BME280;10959;51.328;7.322;2022-11-15T10:46:35;97957.91;;;15.41;63.53
21594;BME280;10959;51.328;7.322;2022-11-15T10:49:13;97956.69;;;15.33;63.19
21594;BME280;10959;51.328;7.322;2022-11-15T10:51:44;97948.94;;;15.61;62.99
21594;BME280;10959;51.328;7.322;2022-11-15T10:54:15;97945.00;;;15.65;62.07
21594;BME280;10959;51.328;7.322;2022-11-15T10:56:48;97939.66;;;15.75;61.52
21594;BME280;10959;51.328;7.322;2022-11-15T10:59:24;97950.16;;;15.68;61.02
21594;BME280;10959;51.328;7.322;2022-11-15T11:01:52;97932.06;;;15.90;61.64
21594;BME280;10959;51.328;7.322;2022-11-15T11:04:18;97940.91;;;16.03;61.29
21594;BME280;10959;51.328;7.322;2022-11-15T11:06:49;97931.66;;;16.16;61.77
21594;BME280;10959;51.328;7.322;2022-11-15T11:09:29;97930.34;;;16.31;61.46
21594;BME280;10959;51.328;7.322;2022-11-15T11:11:56;97930.38;;;16.62;60.23
21594;BME280;10959;51.328;7.322;2022-11-15T11:14:24;97929.13;;;16.76;59.30
21594;BME280;10959;51.328;7.322;2022-11-15T11:16:54;97930.00;;;16.76;57.88
21594;BME280;10959;51.328;7.322;2022-11-15T11:19:37;97923.47;;;16.58;57.50
21594;BME280;10959;51.328;7.322;2022-11-15T11:22:13;97926.19;;;16.58;57.62
21594;BME280;10959;51.328;7.322;2022-11-15T11:24:48;97928.19;;;16.56;57.55
21594;BME280;10959;51.328;7.322;2022-11-15T11:27:26;97925.22;;;16.59;57.78
21594;BME280;10959;51.328;7.322;2022-11-15T11:30:06;97920.22;;;16.64;57.13
21594;BME280;10959;51.328;7.322;2022-11-15T11:32:49;97917.22;;;16.67;55.94
21594;BME280;10959;51.328;7.322;2022-11-15T11:35:20;97915.41;;;16.78;55.73
21594;BME280;10959;51.328;7.322;2022-11-15T11:37:51;97915.91;;;16.92;55.08
21594;BME280;10959;51.328;7.322;2022-11-15T11:40:30;97903.66;;;16.77;54.01
21594;BME280;10959;51.328;7.322;2022-11-15T11:43:02;97888.13;;;16.89;53.36
21594;BME280;10959;51.328;7.322;2022-11-15T11:45:47;97893.03;;;16.64;51.90
21594;BME280;10959;51.328;7.322;2022-11-15T11:48:26;97891.66;;;16.80;53.07
21594;BME280;10959;51.328;7.322;2022-11-15T11:51:00;97871.50;;;16.82;53.95
21594;BME280;10959;51.328;7.322;2022-11-15T11:53:31;97887.13;;;16.90;51.55
21594;BME280;10959;51.328;7.322;2022-11-15T11:56:13;97886.78;;;16.73;52.12
21594;BME280;10959;51.328;7.322;2022-11-15T11:58:43;97888.22;;;16.78;52.47
21594;BME280;10959;51.328;7.322;2022-11-15T12:01:15;97882.50;;;16.81;53.22
21594;BME280;10959;51.328;7.322;2022-11-15T12:03:44;97882.56;;;17.00;53.27
21594;BME280;10959;51.328;7.322;2022-11-15T12:06:21;97882.31;;;17.03;53.80
21594;BME280;10959;51.328;7.322;2022-11-15T12:08:53;97883.31;;;17.02;52.20
21594;BME280;10959;51.328;7.322;2022-11-15T12:11:26;97882.31;;;17.03;52.01
21594;BME280;10959;51.328;7.322;2022-11-15T12:13:59;97881.72;;;17.00;52.70
21594;BME280;10959;51.328;7.322;2022-11-15T12:16:28;97886.72;;;17.04;52.93
21594;BME280;10959;51.328;7.322;2022-11-15T12:18:58;97889.56;;;16.93;51.80
21594;BME280;10959;51.328;7.322;2022-11-15T12:21:32;97888.22;;;16.78;52.83
21594;BME280;10959;51.328;7.322;2022-11-15T12:24:05;97885.75;;;16.74;52.69
21594;BME280;10959;51.328;7.322;2022-11-15T12:26:38;97875.31;;;16.39;52.10
21594;BME280;10959;51.328;7.322;2022-11-15T12:29:13;97882.41;;;16.20;52.49
21594;BME280;10959;51.328;7.322;2022-11-15T12:31:43;97878.91;;;16.39;53.20
21594;BME280;10959;51.328;7.322;2022-11-15T12:34:29;97870.75;;;16.09;53.18
21594;BME280;10959;51.328;7.322;2022-11-15T12:36:59;97875.38;;;16.18;54.23
21594;BME280;10959;51.328;7.322;2022-11-15T12:40:03;97863.84;;;16.04;54.18
21594;BME280;10959;51.328;7.322;2022-11-15T12:42:41;97864.78;;;16.15;55.11
21594;BME280;10959;51.328;7.322;2022-11-15T12:45:25;97854.16;;;16.12;54.85
21594;BME280;10959;51.328;7.322;2022-11-15T12:47:52;97844.56;;;16.38;54.69
21594;BME280;10959;51.328;7.322;2022-11-15T12:50:52;97835.34;;;16.20;55.70
21594;BME280;10959;51.328;7.322;2022-11-15T12:53:30;97829.91;;;16.20;54.94
21594;BME280;10959;51.328;7.322;2022-11-15T12:56:19;97820.16;;;16.08;54.58
21594;BME280;10959;51.328;7.322;2022-11-15T12:58:49;97824.81;;;16.27;55.07
21594;BME280;10959;51.328;7.322;2022-11-15T13:04:24;97816.53;;;16.28;55.15
21594;BME280;10959;51.328;7.322;2022-11-15T13:06:52;97802.84;;;16.39;54.92
21594;BME280;10959;51.328;7.322;2022-11-15T13:09:50;97797.75;;;16.15;54.51
21594;BME280;10959;51.328;7.322;2022-11-15T13:12:54;97790.44;;;16.16;54.88
21594;BME280;10959;51.328;7.322;2022-11-15T13:15:34;97787.59;;;16.17;55.22
21594;BME280;10959;51.328;7.322;2022-11-15T13:18:33;97789.88;;;16.12;55.04
21594;BME280;10959;51.328;7.322;2022-11-15T13:21:02;97783.63;;;16.31;55.23